EST,Max TemperatureF,Mean TemperatureF,Min TemperatureF,Max Dew PointF,MeanDew PointF,Min DewpointF,Max Humidity, Mean Humidity, Min Humidity, Max Sea Level PressureIn, Mean Sea Level PressureIn, Min Sea Level PressureIn, Max VisibilityMiles, Mean VisibilityMiles, Min VisibilityMiles, Max Wind SpeedMPH, Mean Wind SpeedMPH, Max Gust SpeedMPH,PrecipitationIn, CloudCover, Events, WindDirDegrees
2012-12-1,52,39,25,37,30,21,92,73,54,30.35,30.28,30.15,10,6,3,20,7,24,0.00,8,,68
2012-12-2,54,51,47,50,46,38,100,80,59,30.14,30.01,29.90,10,5,0,24,14,32,0.35,8,Rain,225
2012-12-3,59,51,43,54,44,39,89,81,72,30.24,30.16,30.05,10,8,6,14,4,17,T,6,,155
2012-12-4,65,56,46,55,50,42,93,78,63,30.04,29.96,29.89,10,8,1,25,15,30,0.27,7,Rain,229
2012-12-5,46,37,27,43,26,17,89,70,51,30.40,30.22,29.98,10,10,9,23,11,30,T,5,Rain-Snow,294
2012-12-6,42,32,22,25,20,18,81,60,38,30.41,30.24,30.03,10,10,10,13,6,15,0.00,7,,118
2012-12-7,46,41,36,40,34,18,89,65,40,30.01,29.97,29.92,10,10,10,16,6,20,T,8,Rain,208
2012-12-8,45,40,35,43,40,29,100,91,82,30.17,29.87,29.76,10,5,0,16,6,21,0.18,8,Rain,330
2012-12-9,45,37,29,42,29,19,100,85,69,30.28,30.09,29.72,10,8,2,21,10,25,0.44,8,Rain,58
2012-12-10,53,44,34,52,41,27,93,84,75,29.78,29.60,29.50,10,8,1,24,12,32,0.29,8,Rain-Snow,236
2012-12-11,35,32,29,28,24,21,85,73,61,30.17,29.99,29.75,10,9,5,15,6,24,T,7,Snow,294
2012-12-12,39,35,31,31,28,23,92,79,66,30.43,30.31,30.15,10,8,3,22,10,31,0.04,6,Rain-Snow,221
2012-12-13,43,35,27,27,23,20,78,62,45,30.44,30.36,30.20,10,10,10,15,8,22,0.00,2,,192
2012-12-14,43,37,31,34,28,19,92,70,48,30.28,30.22,30.15,10,9,3,16,8,23,0.00,3,,235
2012-12-15,43,36,28,33,30,26,100,81,62,30.27,30.19,29.92,10,4,0,16,8,18,T,5,Fog-Rain,97
2012-12-16,57,50,42,43,38,30,82,70,57,29.90,29.75,29.67,10,10,7,22,11,28,0.01,7,Rain,163
2012-12-17,48,45,42,46,41,37,96,86,76,29.75,29.67,29.54,10,8,3,17,8,22,0.22,8,Rain,206
2012-12-18,43,40,36,42,38,30,100,85,70,29.76,29.58,29.48,10,6,1,18,11,25,0.32,8,Rain,301
2012-12-19,41,38,34,32,29,27,82,71,59,30.19,29.99,29.77,10,10,9,13,6,16,0.00,6,,285
2012-12-20,44,38,31,36,28,24,85,68,51,30.17,29.86,29.36,10,10,9,31,14,41,0.08,6,Rain,119
2012-12-21,44,37,30,36,31,25,100,85,70,29.44,29.29,29.20,10,5,1,30,12,38,0.27,8,Rain-Snow,250
2012-12-22,33,31,28,27,22,19,85,71,56,29.96,29.76,29.47,10,7,1,28,18,38,0.03,8,Snow,273
2012-12-23,35,32,29,27,24,20,92,77,61,30.02,29.90,29.80,10,8,1,22,13,30,0.02,8,Snow,263
2012-12-24,30,29,28,26,20,17,78,71,63,30.06,29.96,29.85,10,9,2,15,7,18,0.01,8,Snow,60
2012-12-25,33,31,28,27,25,23,92,78,64,30.33,30.13,29.88,10,8,2,13,4,17,0.02,7,Snow,37
2012-12-26,30,26,22,25,20,16,92,82,72,30.33,30.05,29.76,10,6,0,25,16,32,0.65,8,Snow,60
2012-12-27,26,25,23,23,21,19,96,89,81,30.08,29.87,29.71,10,5,0,21,10,26,0.21,8,Snow,339
2012-12-28,28,25,22,23,21,19,92,87,81,30.16,30.10,30.03,10,7,2,14,5,17,0.01,8,Snow,264
2012-12-29,28,26,24,25,23,20,92,87,81,30.01,29.81,29.66,10,4,0,16,9,20,0.23,8,Fog-Snow,11
2012-12-30,30,26,21,23,17,13,84,69,53,30.26,30.14,29.89,10,10,7,28,11,39,T,6,Snow,272
2012-12-31,36,31,25,28,24,18,78,73,68,30.18,29.99,29.87,10,10,7,30,18,47,T,8,Snow,235